Time;durP1;ratioP1;P1;durP2;ratioP2;P2;SDS_P1;SDS_P2;PMS_P1;PMS_P2;Temp;Humidity;BMP_temperature;BMP_pressure;BME280_temperature;BME280_humidity;BME280_pressure;Samples;Min_cycle;Max_cycle;Signal;HPM_P1;HPM_P2
2022/01/31 00:02:10;;;;;;;23.67;7.27;;;;;;;5.98;63.25;101063.16;5060152;28;20443;-77
2022/01/31 00:04:35;;;;;;;20.70;6.80;;;;;;;5.86;63.44;101060.13;5059962;28;20481;-75
2022/01/31 00:07:02;;;;;;;21.23;6.67;;;;;;;5.48;64.49;101046.72;5060290;28;20494;-76
2022/01/31 00:09:27;;;;;;;23.10;7.07;;;;;;;5.73;65.31;101040.69;5060208;28;20235;-75
2022/01/31 00:11:58;;;;;;;20.93;7.50;;;;;;;5.74;64.44;101030.41;5060137;28;20412;-75
2022/01/31 00:14:44;;;;;;;20.07;7.90;;;;;;;5.90;64.33;101033.50;5043790;28;20230;-74
2022/01/31 00:17:10;;;;;;;26.80;8.30;;;;;;;5.42;64.75;101025.81;5060107;28;20679;-75
2022/01/31 00:19:37;;;;;;;33.37;8.10;;;;;;;5.35;66.22;101011.81;5060113;28;20543;-75
2022/01/31 00:22:04;;;;;;;28.27;7.40;;;;;;;5.81;64.99;100992.69;5059988;28;20412;-74
2022/01/31 00:24:29;;;;;;;23.20;7.37;;;;;;;5.74;64.22;100977.78;5059585;28;20833;-76
2022/01/31 00:26:55;;;;;;;28.20;7.43;;;;;;;5.85;63.82;100965.22;5060194;28;20440;-76
2022/01/31 00:29:20;;;;;;;24.20;6.80;;;;;;;5.83;63.84;100961.69;5059747;28;20174;-76
2022/01/31 00:31:46;;;;;;;27.97;7.63;;;;;;;5.49;64.67;100961.44;5059535;28;20439;-76
2022/01/31 00:34:11;;;;;;;27.80;8.13;;;;;;;5.80;63.90;100957.28;5044665;28;20490;-76
2022/01/31 00:36:36;;;;;;;25.87;7.90;;;;;;;5.55;64.18;100946.13;5079835;28;20195;-75
2022/01/31 00:39:03;;;;;;;20.73;6.67;;;;;;;5.50;64.75;100937.34;5079385;28;20311;-77
2022/01/31 00:41:29;;;;;;;21.03;7.30;;;;;;;5.48;64.18;100926.06;5079327;28;20184;-77
2022/01/31 00:44:01;;;;;;;23.10;6.37;;;;;;;5.55;63.57;100922.00;5079089;28;20415;-76
2022/01/31 00:46:36;;;;;;;24.40;7.53;;;;;;;5.44;64.54;100907.81;5079869;28;20168;-75
2022/01/31 00:49:02;;;;;;;21.67;7.70;;;;;;;5.51;63.94;100899.44;5079167;28;20469;-75
2022/01/31 00:51:27;;;;;;;20.07;8.00;;;;;;;5.31;64.00;100886.72;5079095;28;20419;-75
2022/01/31 00:53:53;;;;;;;21.00;6.90;;;;;;;5.28;64.49;100875.41;5078941;28;20438;-75
2022/01/31 00:56:18;;;;;;;22.17;7.33;;;;;;;5.62;62.92;100861.88;5079079;28;20176;-76
2022/01/31 00:58:43;;;;;;;24.50;7.80;;;;;;;5.78;63.07;100857.16;5079378;28;20476;-76
2022/01/31 01:01:08;;;;;;;24.17;6.70;;;;;;;5.73;62.15;100850.13;5078852;28;20219;-75
2022/01/31 01:03:34;;;;;;;23.47;6.97;;;;;;;5.54;62.95;100845.22;5078826;28;20226;-76
2022/01/31 01:05:59;;;;;;;19.60;7.33;;;;;;;5.74;62.78;100831.22;5079298;28;20165;-75
2022/01/31 01:08:24;;;;;;;20.73;8.33;;;;;;;5.76;61.39;100830.38;5078830;28;20262;-74
2022/01/31 01:10:50;;;;;;;15.30;6.20;;;;;;;5.68;62.34;100805.16;5079268;28;20184;-75
2022/01/31 01:13:15;;;;;;;21.27;6.90;;;;;;;5.66;61.97;100785.25;5083974;28;20247;-74
2022/01/31 01:15:40;;;;;;;25.63;7.63;;;;;;;5.64;61.96;100794.66;5078629;28;20530;-74
2022/01/31 01:18:06;;;;;;;17.30;7.57;;;;;;;5.68;61.64;100788.75;5078561;28;20238;-73
2022/01/31 01:20:31;;;;;;;23.87;7.77;;;;;;;5.90;61.04;100790.28;5079050;28;20188;-74
2022/01/31 01:22:57;;;;;;;27.30;9.40;;;;;;;5.71;61.91;100784.56;5078427;28;20176;-75
2022/01/31 01:25:22;;;;;;;24.30;7.70;;;;;;;5.89;60.75;100770.41;5061125;28;20169;-75
2022/01/31 01:27:51;;;;;;;27.83;8.47;;;;;;;5.74;61.49;100729.47;5078937;28;20205;-74
2022/01/31 01:30:16;;;;;;;28.33;8.90;;;;;;;5.54;61.42;100682.31;5078239;28;20179;-75
2022/01/31 01:32:58;;;;;;;29.50;8.27;;;;;;;5.98;61.00;100705.13;5078413;28;20502;-75
2022/01/31 01:35:30;;;;;;;23.77;7.00;;;;;;;5.56;60.65;100689.28;5078620;28;20477;-77
2022/01/31 01:37:56;;;;;;;23.80;7.00;;;;;;;5.65;62.47;100690.38;5078353;28;20433;-76
2022/01/31 01:40:21;;;;;;;21.60;6.50;;;;;;;5.74;61.03;100690.66;5079075;28;20479;-77
2022/01/31 01:42:46;;;;;;;23.80;7.00;;;;;;;5.55;60.89;100690.13;5078431;28;20173;-76
2022/01/31 01:45:12;;;;;;;29.23;7.53;;;;;;;5.85;60.41;100676.31;5078372;28;20176;-76
2022/01/31 01:47:37;;;;;;;21.00;6.23;;;;;;;5.61;61.25;100668.72;5078892;28;20473;-76
2022/01/31 01:50:03;;;;;;;17.53;6.27;;;;;;;5.73;61.78;100656.13;5078226;28;20222;-76
2022/01/31 01:52:28;;;;;;;17.93;6.80;;;;;;;6.11;59.65;100658.06;5078010;28;20184;-75
2022/01/31 01:54:54;;;;;;;19.67;6.77;;;;;;;5.90;59.65;100648.84;5060979;28;20184;-75
2022/01/31 01:57:22;;;;;;;20.50;5.93;;;;;;;5.84;59.99;100650.38;5077988;28;20169;-74
2022/01/31 01:59:48;;;;;;;18.07;7.50;;;;;;;5.29;61.08;100648.00;5078097;28;20179;-75
2022/01/31 02:02:13;;;;;;;26.23;7.70;;;;;;;5.78;60.18;100622.66;5060949;28;20416;-75
2022/01/31 02:04:40;;;;;;;20.30;7.63;;;;;;;5.86;60.79;100626.31;5060406;28;20184;-76
2022/01/31 02:07:05;;;;;;;25.57;6.73;;;;;;;5.45;60.56;100612.25;5060721;28;20204;-76
2022/01/31 02:09:39;;;;;;;17.73;6.00;;;;;;;5.50;60.95;100602.91;5078528;28;20800;-76
2022/01/31 02:12:05;;;;;;;19.83;6.93;;;;;;;5.70;62.30;100585.34;5078000;28;20169;-74
2022/01/31 02:14:32;;;;;;;17.47;5.80;;;;;;;5.78;60.62;100565.75;5077639;28;20583;-75
2022/01/31 02:16:57;;;;;;;21.00;6.40;;;;;;;5.75;60.81;100573.44;5077911;28;20185;-74
2022/01/31 02:19:23;;;;;;;33.57;7.03;;;;;;;5.67;61.19;100567.16;5078119;28;20430;-75
2022/01/31 02:21:53;;;;;;;22.60;6.53;;;;;;;5.67;60.24;100559.38;5078198;28;20486;-74
2022/01/31 02:24:19;;;;;;;28.87;7.40;;;;;;;5.81;59.96;100550.28;5081812;28;20291;-74
2022/01/31 02:26:44;;;;;;;24.13;6.83;;;;;;;5.94;60.50;100542.84;5081838;28;20426;-74
2022/01/31 02:29:11;;;;;;;16.00;5.40;;;;;;;5.44;61.65;100531.22;5082301;28;20196;-75
2022/01/31 02:31:36;;;;;;;21.17;6.27;;;;;;;5.89;59.89;100530.66;5082053;28;20173;-75
2022/01/31 02:34:02;;;;;;;20.77;6.60;;;;;;;5.74;61.09;100525.97;5093503;28;20419;-75
2022/01/31 02:36:27;;;;;;;18.53;6.10;;;;;;;5.66;60.75;100516.28;5094739;28;20173;-76
2022/01/31 02:38:52;;;;;;;26.90;6.90;;;;;;;6.04;59.66;100519.84;5084382;28;20490;-74
2022/01/31 02:41:18;;;;;;;17.33;6.20;;;;;;;5.93;59.87;100521.28;5082139;28;20169;-75
2022/01/31 02:43:49;;;;;;;15.50;5.80;;;;;;;5.65;60.05;100514.53;5082194;28;20169;-74
2022/01/31 02:46:14;;;;;;;18.20;6.17;;;;;;;5.75;61.06;100508.75;5081695;28;20181;-75
2022/01/31 02:48:39;;;;;;;28.30;7.60;;;;;;;5.84;60.07;100506.38;5081451;28;20716;-75
2022/01/31 02:51:09;;;;;;;20.90;6.83;;;;;;;5.46;63.00;100508.84;5081995;28;20165;-75
2022/01/31 02:53:40;;;;;;;17.67;6.40;;;;;;;5.51;61.64;100494.34;5081142;28;20474;-74
2022/01/31 02:56:06;;;;;;;15.93;6.33;;;;;;;5.20;63.35;100495.25;5081173;28;20489;-75
2022/01/31 02:58:31;;;;;;;14.47;5.43;;;;;;;5.30;63.91;100478.28;5064013;28;20725;-74
2022/01/31 03:00:58;;;;;;;19.80;6.10;;;;;;;5.79;61.98;100470.91;5081252;28;20211;-74
2022/01/31 03:03:24;;;;;;;20.27;6.90;;;;;;;5.15;62.91;100469.25;5081373;28;20415;-74
2022/01/31 03:05:50;;;;;;;25.57;6.80;;;;;;;5.02;63.42;100469.75;5081149;28;20529;-75
2022/01/31 03:08:15;;;;;;;16.90;6.40;;;;;;;5.06;63.96;100450.94;5080830;28;20785;-74
2022/01/31 03:10:41;;;;;;;24.03;6.93;;;;;;;5.26;63.62;100438.53;5081662;28;20523;-74
2022/01/31 03:13:06;;;;;;;19.23;6.40;;;;;;;5.24;63.16;100419.53;5080779;28;20181;-75
2022/01/31 03:15:32;;;;;;;20.07;6.13;;;;;;;5.28;62.38;100398.09;5080833;28;20183;-75
2022/01/31 03:17:58;;;;;;;20.87;7.00;;;;;;;5.61;62.27;100388.56;5081228;28;20199;-75
2022/01/31 03:20:24;;;;;;;19.60;6.97;;;;;;;5.81;61.34;100378.69;5080859;28;20169;-74
2022/01/31 03:22:50;;;;;;;18.20;6.73;;;;;;;5.92;61.24;100374.63;5080550;28;20850;-74
2022/01/31 03:25:16;;;;;;;24.87;6.60;;;;;;;5.35;62.38;100365.53;5063685;28;20788;-74
2022/01/31 03:27:42;;;;;;;18.23;6.43;;;;;;;5.14;63.10;100348.66;5080772;28;20460;-74
2022/01/31 03:30:11;;;;;;;15.67;5.93;;;;;;;5.26;62.69;100342.91;5080771;28;20419;-75
2022/01/31 03:32:36;;;;;;;16.87;6.20;;;;;;;5.67;61.63;100329.22;5064067;28;20403;-76
2022/01/31 03:35:04;;;;;;;13.53;5.97;;;;;;;5.79;62.25;100320.88;5079500;28;20463;-75
2022/01/31 03:37:29;;;;;;;15.17;6.20;;;;;;;5.60;62.22;100317.84;5080445;28;20184;-74
2022/01/31 03:39:54;;;;;;;25.20;7.07;;;;;;;5.30;63.82;100307.69;5080972;28;20426;-75
2022/01/31 03:42:20;;;;;;;17.80;6.47;;;;;;;5.45;62.58;100299.41;5080403;28;20614;-75
2022/01/31 03:44:47;;;;;;;10.63;6.00;;;;;;;5.74;61.77;100282.84;5080265;28;20176;-75
2022/01/31 03:47:12;;;;;;;14.87;5.70;;;;;;;5.53;62.11;100272.03;5080927;28;20229;-74
2022/01/31 03:49:38;;;;;;;16.17;5.40;;;;;;;5.48;63.00;100273.63;5080338;28;20416;-75
2022/01/31 03:52:03;;;;;;;15.60;6.10;;;;;;;5.71;61.91;100253.44;5080232;28;20582;-75
2022/01/31 03:54:28;;;;;;;20.30;8.27;;;;;;;5.77;61.65;100251.00;5080774;28;20252;-75
2022/01/31 03:56:54;;;;;;;13.47;5.43;;;;;;;5.77;61.70;100248.41;5081230;28;20430;-76
2022/01/31 03:59:19;;;;;;;14.80;6.20;;;;;;;5.98;61.10;100242.84;5080559;28;20177;-75
2022/01/31 04:01:44;;;;;;;24.00;6.90;;;;;;;4.84;64.69;100227.34;5080506;28;20188;-75
2022/01/31 04:04:10;;;;;;;15.50;6.27;;;;;;;5.43;63.21;100218.38;5079661;28;20188;-74
2022/01/31 04:06:38;;;;;;;17.53;5.83;;;;;;;5.08;66.49;100218.44;5080049;28;20165;-76
2022/01/31 04:09:03;;;;;;;14.93;6.80;;;;;;;5.40;66.05;100199.38;5080203;28;20542;-74
2022/01/31 04:11:29;;;;;;;12.60;5.90;;;;;;;5.07;65.48;100189.13;5079790;28;20735;-73
2022/01/31 04:13:54;;;;;;;17.00;6.33;;;;;;;5.34;65.02;100178.53;5079552;28;20173;-75
2022/01/31 04:16:19;;;;;;;14.40;6.33;;;;;;;5.15;64.85;100173.81;5080273;28;20201;-74
2022/01/31 04:18:44;;;;;;;18.93;6.67;;;;;;;5.04;65.44;100166.69;5079585;28;20205;-74
2022/01/31 04:21:10;;;;;;;16.90;5.77;;;;;;;4.34;67.72;100159.00;5079828;28;20183;-75
2022/01/31 04:23:35;;;;;;;16.93;6.17;;;;;;;5.00;66.89;100154.53;5080179;28;20166;-75
2022/01/31 04:26:10;;;;;;;15.77;6.37;;;;;;;4.89;65.86;100143.97;5079678;28;20430;-74
2022/01/31 04:28:48;;;;;;;15.23;6.30;;;;;;;5.01;66.15;100147.69;5079329;28;20204;-74
2022/01/31 04:31:36;;;;;;;14.23;5.80;;;;;;;5.00;65.36;100136.47;5079534;28;20415;-74
2022/01/31 04:34:00;;;;;;;13.93;5.60;;;;;;;5.23;66.26;100130.94;5079093;28;20411;-74
2022/01/31 04:36:25;;;;;;;29.33;9.03;;;;;;;5.35;65.62;100109.66;5079405;28;20866;-75
2022/01/31 04:38:51;;;;;;;16.27;5.97;;;;;;;5.23;65.62;100110.25;5079241;28;20168;-74
2022/01/31 04:41:16;;;;;;;14.63;6.20;;;;;;;5.13;65.28;100097.97;5079817;28;20176;-75
2022/01/31 04:43:43;;;;;;;17.10;6.07;;;;;;;5.01;66.21;100089.13;5079029;28;20590;-75
2022/01/31 04:46:10;;;;;;;17.97;6.87;;;;;;;5.00;66.73;100076.19;5077947;28;20169;-75
2022/01/31 04:48:35;;;;;;;20.00;7.13;;;;;;;5.01;66.35;100068.47;5079588;28;20486;-75
2022/01/31 04:51:01;;;;;;;18.23;6.60;;;;;;;5.05;66.42;100072.00;5079137;28;20729;-73
2022/01/31 04:53:26;;;;;;;20.37;7.17;;;;;;;5.09;66.41;100063.47;5079497;28;20432;-74
2022/01/31 04:55:52;;;;;;;19.40;6.30;;;;;;;5.23;65.16;100046.50;5062154;28;20171;-74
2022/01/31 04:58:20;;;;;;;19.80;7.70;;;;;;;5.06;66.83;100053.06;5078796;28;20217;-75
2022/01/31 05:00:45;;;;;;;22.80;6.53;;;;;;;5.20;66.21;100050.75;5078840;28;20422;-73
2022/01/31 05:03:16;;;;;;;20.97;6.63;;;;;;;5.16;65.51;100034.31;5079122;28;20415;-74
2022/01/31 05:05:42;;;;;;;16.47;6.90;;;;;;;5.08;66.67;100030.72;5078828;28;20176;-74
2022/01/31 05:08:08;;;;;;;17.53;7.17;;;;;;;5.23;65.07;100032.72;5078783;28;20463;-75
2022/01/31 05:10:42;;;;;;;13.20;6.30;;;;;;;4.84;66.35;100029.38;5061782;28;20477;-75
2022/01/31 05:13:08;;;;;;;18.93;7.17;;;;;;;5.24;65.99;100024.16;5078411;28;20831;-74
2022/01/31 05:15:33;;;;;;;20.60;6.83;;;;;;;5.21;66.05;100021.50;5078656;28;20411;-75
2022/01/31 05:17:58;;;;;;;23.17;7.03;;;;;;;5.03;66.65;100012.53;5079077;28;20189;-75
2022/01/31 05:20:24;;;;;;;20.27;7.63;;;;;;;5.41;64.36;100003.78;5078597;28;20168;-77
2022/01/31 05:22:49;;;;;;;18.17;6.43;;;;;;;5.03;65.16;99998.75;5061086;28;20169;-77
2022/01/31 05:25:14;;;;;;;19.17;7.03;;;;;;;5.03;65.28;100002.22;5078932;28;20169;-76
2022/01/31 05:27:39;;;;;;;18.20;6.33;;;;;;;4.61;66.91;99997.00;5078396;28;20284;-75
2022/01/31 05:30:05;;;;;;;16.73;5.93;;;;;;;4.63;66.55;99993.63;5078525;28;20169;-76
2022/01/31 05:32:30;;;;;;;12.77;5.90;;;;;;;5.02;66.14;99982.38;5091132;28;20184;-76
2022/01/31 05:34:56;;;;;;;20.90;7.70;;;;;;;4.87;66.27;99969.13;5090734;28;20208;-76
2022/01/31 05:37:21;;;;;;;17.17;7.73;;;;;;;4.83;65.79;99969.91;5092871;28;20168;-75
2022/01/31 05:39:47;;;;;;;19.40;6.80;;;;;;;4.45;67.13;99964.81;5085478;28;20176;-76
2022/01/31 05:42:13;;;;;;;15.83;6.70;;;;;;;4.65;68.31;99966.09;5081174;28;20184;-76
2022/01/31 05:44:38;;;;;;;23.13;7.53;;;;;;;4.98;67.39;99962.50;5078486;28;20263;-75
2022/01/31 05:47:04;;;;;;;25.43;7.50;;;;;;;5.22;65.49;99958.63;5061668;28;20796;-75
2022/01/31 05:49:29;;;;;;;19.90;7.90;;;;;;;5.16;66.21;99949.06;5078322;28;20180;-75
2022/01/31 05:52:01;;;;;;;14.67;6.50;;;;;;;4.95;65.67;99951.22;5078086;28;20180;-75
2022/01/31 05:54:28;;;;;;;13.03;6.50;;;;;;;4.82;66.89;99940.66;5078354;28;20457;-75
2022/01/31 05:56:55;;;;;;;26.90;7.90;;;;;;;4.55;68.09;99946.97;5077797;28;20423;-75
2022/01/31 05:59:20;;;;;;;14.37;6.70;;;;;;;4.98;66.71;99940.94;5078088;28;20410;-76
2022/01/31 06:01:45;;;;;;;17.40;6.57;;;;;;;5.16;68.06;99936.13;5061140;28;20433;-76
2022/01/31 06:04:11;;;;;;;14.53;7.00;;;;;;;5.05;67.54;99932.50;5077885;28;20538;-76
2022/01/31 06:06:36;;;;;;;19.17;7.67;;;;;;;4.95;68.59;99925.38;5077936;28;20168;-75
2022/01/31 06:09:03;;;;;;;25.97;7.40;;;;;;;4.38;70.81;99930.25;5078300;28;20200;-75
2022/01/31 06:11:30;;;;;;;19.70;7.40;;;;;;;4.51;69.26;99914.19;5077770;28;20170;-75
2022/01/31 06:13:56;;;;;;;19.67;7.73;;;;;;;4.47;70.39;99916.69;5077818;28;20507;-76
2022/01/31 06:16:21;;;;;;;23.97;7.60;;;;;;;4.08;73.30;99921.00;5078335;28;20848;-76
2022/01/31 06:18:46;;;;;;;20.97;7.63;;;;;;;4.43;71.70;99910.59;5077672;28;20192;-75
2022/01/31 06:21:12;;;;;;;18.00;7.40;;;;;;;4.25;72.75;99910.19;5077745;28;20252;-75
2022/01/31 06:23:38;;;;;;;19.60;7.60;;;;;;;4.11;73.40;99905.59;5078169;28;20437;-74
2022/01/31 06:26:03;;;;;;;18.43;7.90;;;;;;;4.35;72.78;99900.09;5077456;28;20176;-75
2022/01/31 06:28:29;;;;;;;19.67;7.87;;;;;;;4.17;73.54;99910.03;5060029;28;20466;-74
2022/01/31 06:30:54;;;;;;;17.13;7.60;;;;;;;4.19;73.84;99911.81;5078096;28;20181;-75
2022/01/31 06:33:19;;;;;;;21.13;7.00;;;;;;;3.95;73.71;99901.81;5077488;28;20173;-74
2022/01/31 06:35:44;;;;;;;26.17;9.53;;;;;;;4.05;74.92;99895.16;5077295;28;20272;-74
2022/01/31 06:38:10;;;;;;;21.30;8.60;;;;;;;4.18;73.21;99897.19;5078091;28;20538;-74
2022/01/31 06:40:35;;;;;;;22.43;8.10;;;;;;;4.40;72.69;99889.91;5077598;28;20176;-73
2022/01/31 06:43:01;;;;;;;25.93;8.77;;;;;;;4.11;73.70;99892.69;5077450;28;20177;-73
2022/01/31 06:45:26;;;;;;;21.03;7.80;;;;;;;4.51;73.34;99883.22;5078086;28;20173;-75
2022/01/31 06:47:51;;;;;;;19.00;6.97;;;;;;;3.36;75.78;99890.09;5077398;28;20220;-76
2022/01/31 06:50:16;;;;;;;13.57;7.40;;;;;;;3.40;76.64;99882.44;5077467;28;20183;-76
2022/01/31 06:52:42;;;;;;;27.23;8.20;;;;;;;4.30;73.87;99888.84;5077757;28;20172;-75
2022/01/31 06:55:08;;;;;;;24.17;7.93;;;;;;;4.30;74.54;99880.22;5077238;28;20172;-73
2022/01/31 06:57:34;;;;;;;20.87;8.20;;;;;;;4.35;74.46;99871.72;5077809;28;20168;-75
2022/01/31 07:00:07;;;;;;;19.17;8.20;;;;;;;4.63;73.36;99876.59;5079363;28;20437;-75
2022/01/31 07:02:33;;;;;;;31.53;7.77;;;;;;;3.87;75.15;99877.56;5078961;28;20415;-75
2022/01/31 07:05:00;;;;;;;15.83;8.10;;;;;;;3.39;76.26;99873.84;5077347;28;20460;-75
2022/01/31 07:07:26;;;;;;;15.57;7.67;;;;;;;3.85;75.91;99868.91;5077283;28;20292;-74
2022/01/31 07:09:51;;;;;;;17.20;8.07;;;;;;;3.89;75.51;99875.88;5079048;28;20836;-75
2022/01/31 07:12:17;;;;;;;17.40;7.47;;;;;;;3.52;76.95;99865.59;5081332;28;20520;-74
2022/01/31 07:14:42;;;;;;;25.77;8.57;;;;;;;3.77;76.95;99870.44;5080764;28;20176;-74
2022/01/31 07:17:08;;;;;;;21.47;8.00;;;;;;;4.02;76.09;99856.41;5080867;28;20488;-74
2022/01/31 07:19:37;;;;;;;26.80;9.40;;;;;;;4.07;76.52;99861.66;5081434;28;20169;-74
2022/01/31 07:22:06;;;;;;;19.53;8.57;;;;;;;3.09;78.27;99856.78;5080779;28;20173;-73
2022/01/31 07:27:04;;;;;;;15.53;7.40;;;;;;;3.85;77.14;99858.59;5080739;28;20419;-76
2022/01/31 07:29:29;;;;;;;19.67;7.80;;;;;;;3.25;78.69;99849.44;5080880;28;20419;-75
2022/01/31 07:31:56;;;;;;;23.20;8.17;;;;;;;3.33;77.94;99851.38;5081373;28;20690;-75
2022/01/31 07:34:21;;;;;;;20.50;7.73;;;;;;;3.62;77.31;99846.06;5080386;28;20220;-75
2022/01/31 07:36:47;;;;;;;17.87;9.07;;;;;;;3.94;76.46;99850.19;5080450;28;20454;-75
2022/01/31 07:39:12;;;;;;;16.83;7.70;;;;;;;3.99;76.69;99836.59;5080946;28;20175;-75
2022/01/31 07:41:37;;;;;;;20.57;8.47;;;;;;;3.85;77.09;99833.69;5062935;28;20369;-75
2022/01/31 07:44:03;;;;;;;22.73;7.30;;;;;;;3.62;77.29;99833.16;5080140;28;20176;-76
2022/01/31 07:46:29;;;;;;;18.90;8.07;;;;;;;3.85;77.48;99837.97;5080878;28;20173;-75
2022/01/31 07:48:54;;;;;;;19.80;8.20;;;;;;;3.50;77.72;99835.47;5080370;28;20204;-75
2022/01/31 07:51:21;;;;;;;13.17;7.03;;;;;;;3.78;77.11;99836.97;5080244;28;20165;-75
2022/01/31 07:53:46;;;;;;;18.23;8.37;;;;;;;3.60;77.28;99836.53;5080529;28;20400;-75
2022/01/31 07:56:14;;;;;;;19.83;8.33;;;;;;;3.86;78.08;99835.44;5080272;28;20426;-74
2022/01/31 07:58:39;;;;;;;19.80;8.10;;;;;;;3.30;78.31;99837.56;5080120;28;20181;-74
2022/01/31 08:01:05;;;;;;;19.27;8.30;;;;;;;3.13;80.12;99830.28;5080434;28;20410;-75
2022/01/31 08:03:31;;;;;;;20.63;7.73;;;;;;;3.48;78.45;99821.69;5080049;28;20169;-75
2022/01/31 08:05:57;;;;;;;21.43;8.10;;;;;;;3.25;79.06;99827.16;5080110;28;20494;-75
2022/01/31 08:08:23;;;;;;;16.77;7.70;;;;;;;3.04;79.52;99819.75;5080370;28;20189;-75
2022/01/31 08:10:49;;;;;;;27.50;8.87;;;;;;;3.67;78.84;99829.00;5080036;28;20584;-75
2022/01/31 08:13:15;;;;;;;25.63;9.07;;;;;;;3.90;77.27;99827.75;5079700;28;20418;-75
2022/01/31 08:16:00;;;;;;;20.50;8.07;;;;;;;3.96;77.03;99827.91;5080310;28;20165;-74
2022/01/31 08:18:26;;;;;;;15.60;8.03;;;;;;;4.02;76.62;99836.63;5080058;28;20840;-75
2022/01/31 08:20:51;;;;;;;14.60;8.20;;;;;;;3.83;77.23;99830.22;5079629;28;20422;-75
2022/01/31 08:23:16;;;;;;;15.13;8.17;;;;;;;3.95;77.87;99828.72;5079871;28;20227;-75
2022/01/31 08:25:47;;;;;;;18.50;6.90;;;;;;;3.27;78.66;99840.91;5062159;28;20177;-73
2022/01/31 08:28:12;;;;;;;12.47;7.50;;;;;;;3.85;76.92;99837.97;5063702;28;20565;-74
2022/01/31 08:30:48;;;;;;;18.03;7.60;;;;;;;3.91;77.28;99832.97;5080483;28;20418;-71
2022/01/31 08:33:26;;;;;;;13.50;7.97;;;;;;;4.17;75.69;99822.34;5088827;28;20198;-74
2022/01/31 08:35:52;;;;;;;13.87;7.33;;;;;;;3.59;76.78;99827.09;5092384;28;20465;-75
2022/01/31 08:38:18;;;;;;;15.30;7.80;;;;;;;3.44;78.89;99825.03;5089351;28;20465;-75
2022/01/31 08:40:44;;;;;;;20.43;8.10;;;;;;;3.67;76.47;99828.13;5080740;28;20411;-74
2022/01/31 08:43:09;;;;;;;14.70;8.57;;;;;;;4.05;76.26;99821.22;5079715;28;20422;-74
2022/01/31 08:45:35;;;;;;;19.20;8.47;;;;;;;3.97;77.73;99814.19;5079847;28;20181;-74
2022/01/31 08:48:02;;;;;;;17.33;8.53;;;;;;;3.86;77.30;99816.53;5079176;28;20594;-72
2022/01/31 08:50:27;;;;;;;13.50;8.70;;;;;;;3.67;78.25;99823.84;5077712;28;20874;-76
2022/01/31 08:52:52;;;;;;;16.87;8.53;;;;;;;3.07;80.59;99824.09;5079243;28;20407;-76
2022/01/31 08:55:20;;;;;;;21.33;8.80;;;;;;;2.78;82.59;99822.53;5079031;28;20176;-74
2022/01/31 08:57:47;;;;;;;13.87;8.17;;;;;;;3.31;80.77;99824.69;5078795;28;20175;-71
2022/01/31 09:00:12;;;;;;;17.40;8.67;;;;;;;3.67;77.42;99835.88;5062463;28;20445;-74
2022/01/31 09:02:41;;;;;;;19.40;8.23;;;;;;;2.89;80.28;99832.25;5078784;28;20407;-73
2022/01/31 09:05:07;;;;;;;17.93;8.97;;;;;;;3.42;79.75;99832.69;5078492;28;20450;-72
2022/01/31 09:07:33;;;;;;;16.10;8.97;;;;;;;4.08;77.06;99837.63;5078969;28;20855;-73
2022/01/31 09:10:00;;;;;;;16.27;8.50;;;;;;;4.34;76.00;99840.72;5078476;28;20438;-73
2022/01/31 09:12:29;;;;;;;16.13;9.07;;;;;;;3.93;77.18;99839.00;5061104;28;20165;-72
2022/01/31 09:14:54;;;;;;;13.57;8.43;;;;;;;4.07;77.33;99834.16;5078882;28;20664;-72
2022/01/31 09:17:20;;;;;;;17.03;9.87;;;;;;;4.27;75.65;99837.16;5078467;28;20431;-71
2022/01/31 09:19:45;;;;;;;16.53;9.57;;;;;;;3.92;77.42;99845.00;5078531;28;20188;-72
2022/01/31 09:22:10;;;;;;;12.70;8.23;;;;;;;3.79;77.22;99842.97;5079143;28;20165;-74
2022/01/31 09:24:38;;;;;;;18.53;9.40;;;;;;;3.77;77.16;99836.94;5078167;28;20206;-75
2022/01/31 09:27:08;;;;;;;22.83;9.60;;;;;;;3.14;80.11;99832.03;5078402;28;20180;-76
2022/01/31 09:29:33;;;;;;;20.17;9.50;;;;;;;3.97;76.66;99832.22;5079266;28;20434;-76
2022/01/31 09:32:08;;;;;;;13.50;8.27;;;;;;;3.68;77.08;99828.16;5077808;28;20414;-70
2022/01/31 09:34:33;;;;;;;11.77;8.60;;;;;;;3.88;76.25;99838.03;5072571;28;20528;-75
2022/01/31 09:37:01;;;;;;;17.13;9.60;;;;;;;3.85;78.61;99844.00;5058456;28;20459;-77
2022/01/31 09:39:27;;;;;;;19.33;9.37;;;;;;;3.85;76.36;99841.41;5058316;28;20173;-76
2022/01/31 09:41:56;;;;;;;19.57;9.77;;;;;;;3.97;77.11;99850.28;5041478;28;20798;-75
2022/01/31 09:49:19;;;;;;;15.10;9.10;;;;;;;4.14;76.52;99850.63;5065181;28;20448;-76
2022/01/31 09:51:45;;;;;;;12.87;9.60;;;;;;;4.55;74.17;99850.63;5041488;28;20460;-77
2022/01/31 09:54:11;;;;;;;18.10;9.00;;;;;;;4.02;76.60;99862.44;5058612;28;20509;-82
2022/01/31 09:56:39;;;;;;;18.03;8.57;;;;;;;4.66;74.19;99863.75;5059173;28;20859;-77
2022/01/31 09:59:05;;;;;;;13.33;8.90;;;;;;;4.57;73.20;99867.00;5073618;28;20575;-77
2022/01/31 10:01:36;;;;;;;10.87;7.87;;;;;;;4.61;73.55;99866.22;5061364;28;20411;-76
2022/01/31 10:04:07;;;;;;;16.93;8.90;;;;;;;4.77;73.16;99864.81;5083041;28;20506;-76
2022/01/31 10:06:40;;;;;;;14.30;8.77;;;;;;;4.89;72.36;99869.34;5080805;28;20419;-75
2022/01/31 10:09:08;;;;;;;15.13;8.33;;;;;;;5.04;72.08;99855.81;5078307;28;20747;-78
2022/01/31 10:11:46;;;;;;;17.93;9.40;;;;;;;4.36;74.77;99857.97;5078600;28;20808;-76
2022/01/31 10:17:29;;;;;;;14.20;8.20;;;;;;;4.29;74.25;99850.06;5077648;28;20454;-75
2022/01/31 10:19:58;;;;;;;13.53;8.53;;;;;;;5.07;72.32;99861.03;5078030;28;20497;-75
2022/01/31 10:22:25;;;;;;;18.27;8.70;;;;;;;5.26;71.01;99862.22;5077667;28;20728;-77
2022/01/31 10:24:56;;;;;;;11.50;8.37;;;;;;;4.70;72.31;99861.22;5077693;28;20415;-77
2022/01/31 10:27:32;;;;;;;13.10;9.20;;;;;;;5.23;71.43;99867.34;5060472;28;20415;-77
2022/01/31 10:30:32;;;;;;;14.10;8.57;;;;;;;5.25;70.84;99863.09;5077885;28;20389;-78
2022/01/31 10:32:58;;;;;;;12.50;8.57;;;;;;;5.62;69.63;99868.84;4977455;28;20432;-76
2022/01/31 10:35:31;;;;;;;15.20;8.30;;;;;;;4.66;72.85;99881.81;5055971;28;20458;-80
2022/01/31 10:38:04;;;;;;;10.67;8.13;;;;;;;4.87;71.34;99884.81;5097733;28;20164;-76
2022/01/31 10:54:10;;;;;;;7.73;6.60;;;;;;;5.08;70.47;99911.00;5084587;28;20414;-78
2022/01/31 10:56:46;;;;;;;9.77;7.20;;;;;;;5.06;70.74;99904.09;5084886;28;20414;-76
2022/01/31 10:59:14;;;;;;;11.67;8.63;;;;;;;5.18;69.22;99908.63;5101505;28;20683;-75
2022/01/31 11:01:41;;;;;;;16.77;9.37;;;;;;;5.30;71.13;99910.53;5101533;28;20510;-79
2022/01/31 11:04:10;;;;;;;14.60;8.50;;;;;;;5.08;70.05;99916.19;5101279;28;20414;-76
2022/01/31 11:06:39;;;;;;;12.27;7.77;;;;;;;5.38;69.30;99915.84;5101427;28;20588;-76
2022/01/31 11:09:10;;;;;;;10.73;8.03;;;;;;;5.89;67.76;99912.38;5101404;28;20488;-76
2022/01/31 11:11:38;;;;;;;16.37;9.17;;;;;;;4.19;72.19;99929.88;5101389;28;20414;-73
2022/01/31 11:14:07;;;;;;;16.17;10.20;;;;;;;4.19;73.21;99939.31;5101052;28;20425;-75
2022/01/31 11:16:32;;;;;;;13.70;10.40;;;;;;;5.08;71.09;99944.59;5083612;28;20800;-73
2022/01/31 11:19:02;;;;;;;16.83;10.80;;;;;;;5.13;72.07;99942.94;5101406;28;20540;-74
2022/01/31 11:21:31;;;;;;;16.77;9.80;;;;;;;4.64;71.12;99946.31;5101408;28;20169;-75
2022/01/31 11:24:03;;;;;;;13.60;10.67;;;;;;;4.63;72.90;99949.72;5083676;28;20414;-79
2022/01/31 11:26:39;;;;;;;10.60;9.50;;;;;;;4.21;74.41;99955.72;5101074;28;20777;-80
2022/01/31 11:29:09;;;;;;;15.57;11.10;;;;;;;4.46;72.88;99956.25;5083589;28;20768;-79
2022/01/31 11:31:36;;;;;;;19.20;10.80;;;;;;;4.25;73.55;99957.53;5117451;28;20470;-79
2022/01/31 11:34:04;;;;;;;16.40;10.63;;;;;;;5.21;71.33;99960.34;5116552;28;20433;-80
2022/01/31 11:36:30;;;;;;;11.00;8.90;;;;;;;4.07;73.63;99965.69;5098856;28;20411;-80
2022/01/31 11:38:56;;;;;;;10.87;8.83;;;;;;;4.82;72.88;99958.72;5068082;28;20502;-78
2022/01/31 11:41:21;;;;;;;14.43;8.43;;;;;;;4.53;72.31;99964.16;5082063;28;20228;-77
2022/01/31 11:43:58;;;;;;;11.80;7.77;;;;;;;4.65;71.96;99973.84;5063475;28;20654;-78
2022/01/31 11:46:24;;;;;;;10.00;7.63;;;;;;;5.44;69.63;99969.34;5080306;28;20334;-79
2022/01/31 11:48:52;;;;;;;9.50;7.30;;;;;;;4.75;72.22;99984.38;5083512;28;20500;-74
2022/01/31 11:51:18;;;;;;;11.53;8.77;;;;;;;4.96;71.98;99984.81;5081563;28;20175;-74
2022/01/31 11:53:43;;;;;;;12.40;8.57;;;;;;;5.20;71.23;99999.94;5080055;28;20506;-76